sensor_id;sensor_type;location;lat;lon;timestamp;pressure;altitude;pressure_sealevel;temperature;humidity
79203;BME280;68630;42.748;23.278;2023-09-19T00:01:47;95891.95;;;16.17;66.24
79203;BME280;68630;42.748;23.278;2023-09-19T00:04:15;95891.95;;;16.17;66.28
79203;BME280;68630;42.748;23.278;2023-09-19T00:06:44;95894.84;;;16.20;66.21
79203;BME280;68630;42.748;23.278;2023-09-19T00:09:13;95892.37;;;16.04;66.71
79203;BME280;68630;42.748;23.278;2023-09-19T00:11:41;95901.92;;;16.03;66.86
79203;BME280;68630;42.748;23.278;2023-09-19T00:14:08;95904.15;;;16.07;66.75
79203;BME280;68630;42.748;23.278;2023-09-19T00:16:36;95897.81;;;16.13;66.45
79203;BME280;68630;42.748;23.278;2023-09-19T00:19:04;95892.22;;;15.88;67.40
79203;BME280;68630;42.748;23.278;2023-09-19T00:21:33;95889.38;;;16.07;66.70
79203;BME280;68630;42.748;23.278;2023-09-19T00:24:00;95890.80;;;15.98;66.96
79203;BME280;68630;42.748;23.278;2023-09-19T00:26:29;95891.79;;;15.97;67.23
79203;BME280;68630;42.748;23.278;2023-09-19T00:28:56;95883.73;;;15.97;67.18
79203;BME280;68630;42.748;23.278;2023-09-19T00:31:25;95879.76;;;16.01;67.07
79203;BME280;68630;42.748;23.278;2023-09-19T00:33:53;95872.31;;;15.95;67.31
79203;BME280;68630;42.748;23.278;2023-09-19T00:36:22;95866.41;;;15.91;67.48
79203;BME280;68630;42.748;23.278;2023-09-19T00:38:50;95871.64;;;15.61;68.67
79203;BME280;68630;42.748;23.278;2023-09-19T00:41:17;95875.36;;;15.64;68.56
79203;BME280;68630;42.748;23.278;2023-09-19T00:43:45;95873.22;;;15.67;68.42
79203;BME280;68630;42.748;23.278;2023-09-19T00:46:18;95873.34;;;15.62;68.73
79203;BME280;68630;42.748;23.278;2023-09-19T00:48:46;95882.14;;;15.54;69.07
79203;BME280;68630;42.748;23.278;2023-09-19T00:51:14;95877.25;;;15.49;69.28
79203;BME280;68630;42.748;23.278;2023-09-19T00:53:44;95871.70;;;15.65;68.71
79203;BME280;68630;42.748;23.278;2023-09-19T00:56:13;95876.83;;;15.58;68.83
79203;BME280;68630;42.748;23.278;2023-09-19T00:58:43;95877.36;;;15.62;68.80
79203;BME280;68630;42.748;23.278;2023-09-19T01:01:10;95876.86;;;15.62;68.84
79203;BME280;68630;42.748;23.278;2023-09-19T01:03:39;95878.48;;;15.73;68.50
79203;BME280;68630;42.748;23.278;2023-09-19T01:06:07;95866.73;;;15.74;68.44
79203;BME280;68630;42.748;23.278;2023-09-19T01:08:35;95864.63;;;15.64;68.83
79203;BME280;68630;42.748;23.278;2023-09-19T01:11:14;95874.72;;;15.48;69.40
79203;BME280;68630;42.748;23.278;2023-09-19T01:14:03;95873.05;;;15.33;69.93
79203;BME280;68630;42.748;23.278;2023-09-19T01:21:57;95882.00;;;15.73;68.71
79203;BME280;68630;42.748;23.278;2023-09-19T01:29:50;95878.88;;;15.64;69.00
79203;BME280;68630;42.748;23.278;2023-09-19T01:32:19;95879.59;;;15.66;68.82
79203;BME280;68630;42.748;23.278;2023-09-19T01:34:56;95876.77;;;15.54;69.22
79203;BME280;68630;42.748;23.278;2023-09-19T01:37:25;95875.64;;;15.57;69.16
79203;BME280;68630;42.748;23.278;2023-09-19T01:40:02;95871.46;;;15.58;69.27
79203;BME280;68630;42.748;23.278;2023-09-19T01:42:37;95881.81;;;15.53;69.37
79203;BME280;68630;42.748;23.278;2023-09-19T01:45:20;95887.86;;;15.55;69.54
79203;BME280;68630;42.748;23.278;2023-09-19T01:47:49;95884.05;;;15.58;69.30
79203;BME280;68630;42.748;23.278;2023-09-19T01:53:23;95884.87;;;15.58;69.32
79203;BME280;68630;42.748;23.278;2023-09-19T01:55:52;95885.33;;;15.53;69.40
79203;BME280;68630;42.748;23.278;2023-09-19T01:58:46;95879.13;;;15.53;69.15
79203;BME280;68630;42.748;23.278;2023-09-19T02:01:14;95875.76;;;15.51;68.76
79203;BME280;68630;42.748;23.278;2023-09-19T02:03:42;95880.14;;;15.38;68.60
79203;BME280;68630;42.748;23.278;2023-09-19T02:06:17;95876.28;;;15.23;69.07
79203;BME280;68630;42.748;23.278;2023-09-19T02:08:48;95878.98;;;15.09;69.93
79203;BME280;68630;42.748;23.278;2023-09-19T02:11:16;95879.56;;;15.03;68.62
79203;BME280;68630;42.748;23.278;2023-09-19T02:13:44;95884.78;;;14.76;68.80
79203;BME280;68630;42.748;23.278;2023-09-19T02:16:12;95883.18;;;14.70;69.17
79203;BME280;68630;42.748;23.278;2023-09-19T02:18:39;95878.47;;;14.58;69.28
79203;BME280;68630;42.748;23.278;2023-09-19T02:21:07;95877.87;;;14.50;69.63
79203;BME280;68630;42.748;23.278;2023-09-19T02:23:36;95871.20;;;14.40;72.01
79203;BME280;68630;42.748;23.278;2023-09-19T02:26:04;95874.09;;;14.43;72.48
79203;BME280;68630;42.748;23.278;2023-09-19T02:28:32;95872.95;;;14.46;69.89
79203;BME280;68630;42.748;23.278;2023-09-19T02:31:00;95872.63;;;14.35;70.03
79203;BME280;68630;42.748;23.278;2023-09-19T02:33:28;95877.05;;;14.16;70.78
79203;BME280;68630;42.748;23.278;2023-09-19T02:35:58;95876.39;;;14.18;70.84
79203;BME280;68630;42.748;23.278;2023-09-19T02:38:26;95866.28;;;14.12;70.76
79203;BME280;68630;42.748;23.278;2023-09-19T02:40:56;95859.83;;;13.95;71.68
79203;BME280;68630;42.748;23.278;2023-09-19T02:43:24;95857.05;;;14.11;73.17
79203;BME280;68630;42.748;23.278;2023-09-19T02:45:52;95854.02;;;14.10;70.93
79203;BME280;68630;42.748;23.278;2023-09-19T02:48:26;95855.03;;;13.89;71.47
79203;BME280;68630;42.748;23.278;2023-09-19T02:50:55;95850.05;;;13.80;72.08
79203;BME280;68630;42.748;23.278;2023-09-19T02:53:23;95854.06;;;13.80;71.85
79203;BME280;68630;42.748;23.278;2023-09-19T02:55:51;95853.28;;;13.74;71.74
79203;BME280;68630;42.748;23.278;2023-09-19T02:58:19;95856.54;;;13.68;71.39
79203;BME280;68630;42.748;23.278;2023-09-19T03:00:47;95849.99;;;13.66;71.64
79203;BME280;68630;42.748;23.278;2023-09-19T03:03:16;95834.27;;;13.77;74.13
79203;BME280;68630;42.748;23.278;2023-09-19T03:05:45;95840.35;;;13.70;73.55
79203;BME280;68630;42.748;23.278;2023-09-19T03:08:14;95835.61;;;13.77;71.92
79203;BME280;68630;42.748;23.278;2023-09-19T03:10:45;95839.06;;;13.74;72.57
79203;BME280;68630;42.748;23.278;2023-09-19T03:13:12;95839.34;;;13.71;72.54
79203;BME280;68630;42.748;23.278;2023-09-19T03:15:43;95829.34;;;13.82;73.81
79203;BME280;68630;42.748;23.278;2023-09-19T03:18:12;95831.13;;;13.78;72.58
79203;BME280;68630;42.748;23.278;2023-09-19T03:20:40;95824.99;;;13.72;73.05
79203;BME280;68630;42.748;23.278;2023-09-19T03:23:08;95829.70;;;13.74;72.11
79203;BME280;68630;42.748;23.278;2023-09-19T03:25:39;95830.13;;;13.79;72.88
79203;BME280;68630;42.748;23.278;2023-09-19T03:28:07;95828.59;;;13.66;72.42
79203;BME280;68630;42.748;23.278;2023-09-19T03:30:36;95832.37;;;13.64;71.87
79203;BME280;68630;42.748;23.278;2023-09-19T03:33:05;95834.50;;;13.60;72.05
79203;BME280;68630;42.748;23.278;2023-09-19T03:35:32;95838.59;;;13.55;72.00
79203;BME280;68630;42.748;23.278;2023-09-19T03:38:01;95851.11;;;13.44;72.68
79203;BME280;68630;42.748;23.278;2023-09-19T03:40:29;95852.74;;;13.32;72.84
79203;BME280;68630;42.748;23.278;2023-09-19T03:43:00;95857.40;;;13.24;72.59
79203;BME280;68630;42.748;23.278;2023-09-19T03:45:26;95855.54;;;13.05;73.28
79203;BME280;68630;42.748;23.278;2023-09-19T03:47:54;95857.01;;;12.78;74.69
79203;BME280;68630;42.748;23.278;2023-09-19T03:50:21;95857.92;;;12.58;75.49
79203;BME280;68630;42.748;23.278;2023-09-19T03:52:49;95856.77;;;12.66;74.87
79203;BME280;68630;42.748;23.278;2023-09-19T03:55:16;95862.52;;;12.77;74.36
79203;BME280;68630;42.748;23.278;2023-09-19T03:57:48;95858.48;;;12.92;73.88
79203;BME280;68630;42.748;23.278;2023-09-19T04:00:15;95852.54;;;12.88;74.78
79203;BME280;68630;42.748;23.278;2023-09-19T04:02:45;95860.39;;;12.96;75.24
79203;BME280;68630;42.748;23.278;2023-09-19T04:05:12;95873.18;;;12.92;75.03
79203;BME280;68630;42.748;23.278;2023-09-19T04:07:40;95870.75;;;12.64;76.09
79203;BME280;68630;42.748;23.278;2023-09-19T04:10:08;95877.04;;;12.53;76.73
79203;BME280;68630;42.748;23.278;2023-09-19T04:12:38;95877.94;;;12.73;76.76
79203;BME280;68630;42.748;23.278;2023-09-19T04:15:06;95880.76;;;12.87;76.50
79203;BME280;68630;42.748;23.278;2023-09-19T04:17:34;95869.73;;;12.96;76.29
79203;BME280;68630;42.748;23.278;2023-09-19T04:20:02;95876.75;;;13.22;75.31
79203;BME280;68630;42.748;23.278;2023-09-19T04:22:31;95866.81;;;13.28;74.94
79203;BME280;68630;42.748;23.278;2023-09-19T04:24:59;95861.73;;;13.50;74.06
79203;BME280;68630;42.748;23.278;2023-09-19T04:27:29;95861.66;;;13.65;73.65
79203;BME280;68630;42.748;23.278;2023-09-19T04:29:56;95864.45;;;14.03;72.61
79203;BME280;68630;42.748;23.278;2023-09-19T04:32:29;95866.01;;;14.53;70.38
79203;BME280;68630;42.748;23.278;2023-09-19T04:34:58;95864.28;;;15.27;67.92
79203;BME280;68630;42.748;23.278;2023-09-19T04:37:28;95854.48;;;15.89;64.94
79203;BME280;68630;42.748;23.278;2023-09-19T04:39:55;95859.14;;;16.54;62.96
79203;BME280;68630;42.748;23.278;2023-09-19T04:42:23;95855.44;;;17.32;60.47
79203;BME280;68630;42.748;23.278;2023-09-19T04:44:51;95852.55;;;17.92;58.62
79203;BME280;68630;42.748;23.278;2023-09-19T04:47:19;95854.84;;;17.75;59.03
79203;BME280;68630;42.748;23.278;2023-09-19T04:49:48;95850.16;;;17.10;60.64
79203;BME280;68630;42.748;23.278;2023-09-19T04:52:16;95850.99;;;16.76;61.76
79203;BME280;68630;42.748;23.278;2023-09-19T04:54:43;95841.05;;;16.64;62.37
79203;BME280;68630;42.748;23.278;2023-09-19T04:57:12;95849.99;;;16.42;63.25
79203;BME280;68630;42.748;23.278;2023-09-19T04:59:40;95848.24;;;16.59;63.31
79203;BME280;68630;42.748;23.278;2023-09-19T05:02:10;95851.30;;;16.69;63.18
79203;BME280;68630;42.748;23.278;2023-09-19T05:04:38;95858.64;;;16.58;63.99
79203;BME280;68630;42.748;23.278;2023-09-19T05:07:06;95856.64;;;16.91;62.95
79203;BME280;68630;42.748;23.278;2023-09-19T05:09:33;95844.46;;;17.09;62.10
79203;BME280;68630;42.748;23.278;2023-09-19T05:12:01;95852.37;;;17.10;62.30
79203;BME280;68630;42.748;23.278;2023-09-19T05:14:28;95859.58;;;17.06;62.81
79203;BME280;68630;42.748;23.278;2023-09-19T05:16:56;95855.98;;;17.44;61.74
79203;BME280;68630;42.748;23.278;2023-09-19T05:22:01;95851.14;;;17.76;61.08
79203;BME280;68630;42.748;23.278;2023-09-19T05:24:25;95852.70;;;17.95;60.38
79203;BME280;68630;42.748;23.278;2023-09-19T05:26:53;95856.58;;;18.13;60.11
79203;BME280;68630;42.748;23.278;2023-09-19T05:29:21;95849.15;;;18.27;59.90
79203;BME280;68630;42.748;23.278;2023-09-19T05:31:49;95842.52;;;18.50;59.13
79203;BME280;68630;42.748;23.278;2023-09-19T05:34:17;95850.12;;;19.11;56.93
79203;BME280;68630;42.748;23.278;2023-09-19T05:36:46;95838.78;;;20.01;54.92
79203;BME280;68630;42.748;23.278;2023-09-19T05:39:15;95839.27;;;20.01;54.31
79203;BME280;68630;42.748;23.278;2023-09-19T05:41:42;95833.15;;;20.60;53.06
79203;BME280;68630;42.748;23.278;2023-09-19T05:44:16;95836.83;;;20.82;52.30
79203;BME280;68630;42.748;23.278;2023-09-19T05:46:45;95834.98;;;20.93;52.36
79203;BME280;68630;42.748;23.278;2023-09-19T05:49:14;95832.97;;;21.47;51.09
79203;BME280;68630;42.748;23.278;2023-09-19T05:51:42;95838.70;;;21.95;49.74
79203;BME280;68630;42.748;23.278;2023-09-19T05:54:10;95830.46;;;22.71;47.89
79203;BME280;68630;42.748;23.278;2023-09-19T05:56:37;95832.45;;;22.73;47.50
79203;BME280;68630;42.748;23.278;2023-09-19T05:59:05;95833.61;;;22.92;47.48
79203;BME280;68630;42.748;23.278;2023-09-19T06:01:33;95825.66;;;23.49;46.25
79203;BME280;68630;42.748;23.278;2023-09-19T06:04:00;95816.08;;;24.64;44.01
79203;BME280;68630;42.748;23.278;2023-09-19T06:06:28;95821.56;;;23.87;44.99
79203;BME280;68630;42.748;23.278;2023-09-19T06:08:56;95816.14;;;23.93;45.17
79203;BME280;68630;42.748;23.278;2023-09-19T06:11:24;95813.92;;;23.18;46.10
79203;BME280;68630;42.748;23.278;2023-09-19T06:16:22;95818.84;;;23.25;46.08
79203;BME280;68630;42.748;23.278;2023-09-19T06:19:00;95812.92;;;23.26;45.67
79203;BME280;68630;42.748;23.278;2023-09-19T06:21:28;95808.37;;;22.46;47.21
79203;BME280;68630;42.748;23.278;2023-09-19T06:23:57;95806.61;;;21.88;49.49
79203;BME280;68630;42.748;23.278;2023-09-19T06:26:25;95808.33;;;22.39;48.17
79203;BME280;68630;42.748;23.278;2023-09-19T06:31:24;95805.94;;;23.10;46.26
79203;BME280;68630;42.748;23.278;2023-09-19T06:33:55;95804.44;;;23.93;44.58
79203;BME280;68630;42.748;23.278;2023-09-19T06:36:23;95804.73;;;22.84;46.33
79203;BME280;68630;42.748;23.278;2023-09-19T06:38:50;95803.02;;;22.94;46.35
79203;BME280;68630;42.748;23.278;2023-09-19T06:41:18;95803.02;;;22.94;46.35
79203;BME280;68630;42.748;23.278;2023-09-19T06:46:18;95799.92;;;21.73;49.14
79203;BME280;68630;42.748;23.278;2023-09-19T06:48:46;95813.59;;;21.39;50.16
79203;BME280;68630;42.748;23.278;2023-09-19T06:51:18;95807.84;;;21.38;49.92
79203;BME280;68630;42.748;23.278;2023-09-19T06:53:44;95809.57;;;21.61;49.48
79203;BME280;68630;42.748;23.278;2023-09-19T06:56:12;95814.38;;;21.80;49.20
79203;BME280;68630;42.748;23.278;2023-09-19T06:58:39;95816.22;;;21.58;49.56
79203;BME280;68630;42.748;23.278;2023-09-19T07:01:16;95820.89;;;21.64;49.78
79203;BME280;68630;42.748;23.278;2023-09-19T07:03:44;95823.52;;;20.91;51.11
79203;BME280;68630;42.748;23.278;2023-09-19T07:06:15;95820.53;;;21.01;51.07
79203;BME280;68630;42.748;23.278;2023-09-19T07:08:41;95830.09;;;21.08;51.06
79203;BME280;68630;42.748;23.278;2023-09-19T07:11:09;95827.81;;;21.52;50.16
79203;BME280;68630;42.748;23.278;2023-09-19T07:13:38;95817.86;;;21.85;49.28
79203;BME280;68630;42.748;23.278;2023-09-19T07:16:06;95814.16;;;22.14;48.33
79203;BME280;68630;42.748;23.278;2023-09-19T07:18:35;95818.67;;;22.29;48.35
79203;BME280;68630;42.748;23.278;2023-09-19T07:21:03;95817.77;;;22.60;47.43
79203;BME280;68630;42.748;23.278;2023-09-19T07:23:34;95817.77;;;22.60;47.43
79203;BME280;68630;42.748;23.278;2023-09-19T07:26:02;95817.72;;;22.71;47.60
79203;BME280;68630;42.748;23.278;2023-09-19T07:28:31;95817.72;;;22.71;47.60
79203;BME280;68630;42.748;23.278;2023-09-19T07:31:02;95817.58;;;22.51;47.99
79203;BME280;68630;42.748;23.278;2023-09-19T07:33:31;95823.28;;;22.91;47.21
79203;BME280;68630;42.748;23.278;2023-09-19T07:36:01;95819.25;;;23.05;46.81
79203;BME280;68630;42.748;23.278;2023-09-19T07:38:29;95822.95;;;22.90;46.97
79203;BME280;68630;42.748;23.278;2023-09-19T07:41:08;95824.01;;;22.96;47.04
79203;BME280;68630;42.748;23.278;2023-09-19T07:57:15;95818.07;;;24.60;42.74
79203;BME280;68630;42.748;23.278;2023-09-19T07:59:44;95818.75;;;25.50;41.47
79203;BME280;68630;42.748;23.278;2023-09-19T08:02:16;95806.54;;;26.98;38.22
79203;BME280;68630;42.748;23.278;2023-09-19T08:07:22;95799.34;;;27.13;37.43
79203;BME280;68630;42.748;23.278;2023-09-19T08:09:54;95802.30;;;25.70;39.67
79203;BME280;68630;42.748;23.278;2023-09-19T08:12:26;95792.50;;;25.94;39.11
79203;BME280;68630;42.748;23.278;2023-09-19T08:17:33;95803.23;;;25.57;39.41
79203;BME280;68630;42.748;23.278;2023-09-19T08:20:00;95745.34;;;25.77;39.02
79203;BME280;68630;42.748;23.278;2023-09-19T08:22:29;95795.16;;;27.01;37.39
79203;BME280;68630;42.748;23.278;2023-09-19T08:24:58;95789.58;;;26.37;38.45
79203;BME280;68630;42.748;23.278;2023-09-19T08:27:27;95789.52;;;26.34;38.46
79203;BME280;68630;42.748;23.278;2023-09-19T08:29:55;95795.59;;;25.88;39.45
79203;BME280;68630;42.748;23.278;2023-09-19T08:32:30;95796.83;;;26.59;38.10
79203;BME280;68630;42.748;23.278;2023-09-19T08:37:25;95800.78;;;27.83;36.16
79203;BME280;68630;42.748;23.278;2023-09-19T08:39:58;95793.56;;;26.75;37.63
79203;BME280;68630;42.748;23.278;2023-09-19T08:42:22;95790.07;;;26.61;38.01
79203;BME280;68630;42.748;23.278;2023-09-19T08:52:45;95775.33;;;27.24;36.70
79203;BME280;68630;42.748;23.278;2023-09-19T09:03:10;95776.02;;;26.14;38.65
79203;BME280;68630;42.748;23.278;2023-09-19T09:05:41;95782.83;;;25.66;39.56
79203;BME280;68630;42.748;23.278;2023-09-19T09:08:11;95784.92;;;26.53;38.14
79203;BME280;68630;42.748;23.278;2023-09-19T09:13:17;95777.45;;;26.16;38.36
79203;BME280;68630;42.748;23.278;2023-09-19T09:15:50;95776.25;;;26.38;37.93
79203;BME280;68630;42.748;23.278;2023-09-19T09:18:16;95768.53;;;26.87;37.18
79203;BME280;68630;42.748;23.278;2023-09-19T09:20:56;95766.80;;;26.84;36.91
79203;BME280;68630;42.748;23.278;2023-09-19T09:23:23;95758.95;;;26.34;38.27
79203;BME280;68630;42.748;23.278;2023-09-19T09:28:24;95756.94;;;26.14;38.88
79203;BME280;68630;42.748;23.278;2023-09-19T09:30:54;95751.54;;;26.95;37.38
79203;BME280;68630;42.748;23.278;2023-09-19T09:33:25;95743.88;;;26.76;37.58
79203;BME280;68630;42.748;23.278;2023-09-19T09:41:08;95731.77;;;26.56;37.79
79203;BME280;68630;42.748;23.278;2023-09-19T09:43:40;95731.30;;;25.90;39.08
79203;BME280;68630;42.748;23.278;2023-09-19T09:46:17;95728.70;;;25.09;40.64
79203;BME280;68630;42.748;23.278;2023-09-19T09:51:30;95718.69;;;25.95;39.35
79203;BME280;68630;42.748;23.278;2023-09-19T09:54:13;95725.69;;;25.69;39.50
79203;BME280;68630;42.748;23.278;2023-09-19T09:57:01;95727.91;;;25.78;38.46
79203;BME280;68630;42.748;23.278;2023-09-19T10:02:20;95732.98;;;25.43;39.54
79203;BME280;68630;42.748;23.278;2023-09-19T10:07:27;95718.34;;;24.85;40.99
79203;BME280;68630;42.748;23.278;2023-09-19T10:10:00;95721.20;;;24.19;42.25
79203;BME280;68630;42.748;23.278;2023-09-19T10:33:15;95707.74;;;25.54;39.24
79203;BME280;68630;42.748;23.278;2023-09-19T10:43:33;95704.56;;;25.73;39.66
79203;BME280;68630;42.748;23.278;2023-09-19T10:46:09;95696.17;;;25.27;40.24
79203;BME280;68630;42.748;23.278;2023-09-19T10:48:39;95700.81;;;25.58;39.84
79203;BME280;68630;42.748;23.278;2023-09-19T10:56:42;95683.70;;;25.60;39.29
79203;BME280;68630;42.748;23.278;2023-09-19T10:59:21;95679.02;;;25.58;39.26
79203;BME280;68630;42.748;23.278;2023-09-19T11:09:55;95673.92;;;26.38;38.04
79203;BME280;68630;42.748;23.278;2023-09-19T11:12:48;95680.06;;;26.61;37.75
79203;BME280;68630;42.748;23.278;2023-09-19T11:31:58;95647.94;;;27.30;36.80
79203;BME280;68630;42.748;23.278;2023-09-19T11:37:00;95643.03;;;27.86;35.92
79203;BME280;68630;42.748;23.278;2023-09-19T11:53:03;95629.27;;;28.28;35.24
79203;BME280;68630;42.748;23.278;2023-09-19T11:55:32;95619.03;;;27.76;36.08
79203;BME280;68630;42.748;23.278;2023-09-19T12:00:37;95614.38;;;27.32;37.19
79203;BME280;68630;42.748;23.278;2023-09-19T12:08:18;95588.79;;;27.26;37.36
79203;BME280;68630;42.748;23.278;2023-09-19T12:13:51;95583.84;;;26.75;38.20
79203;BME280;68630;42.748;23.278;2023-09-19T12:16:22;95585.46;;;26.54;38.69
79203;BME280;68630;42.748;23.278;2023-09-19T12:29:59;95564.54;;;26.11;39.87
79203;BME280;68630;42.748;23.278;2023-09-19T12:32:38;95559.33;;;26.19;39.84
79203;BME280;68630;42.748;23.278;2023-09-19T12:37:51;95563.98;;;25.84;40.44
79203;BME280;68630;42.748;23.278;2023-09-19T12:42:53;95556.28;;;25.65;40.72
79203;BME280;68630;42.748;23.278;2023-09-19T12:48:22;95558.76;;;25.83;40.58
79203;BME280;68630;42.748;23.278;2023-09-19T13:01:16;95538.66;;;25.68;41.09
79203;BME280;68630;42.748;23.278;2023-09-19T13:04:36;95488.37;;;25.54;40.94
79203;BME280;68630;42.748;23.278;2023-09-19T13:11:36;95530.61;;;25.54;41.26
79203;BME280;68630;42.748;23.278;2023-09-19T13:30:47;95514.86;;;25.47;41.62
79203;BME280;68630;42.748;23.278;2023-09-19T13:38:26;95500.80;;;25.59;41.26
79203;BME280;68630;42.748;23.278;2023-09-19T13:48:41;95504.34;;;25.94;41.04
79203;BME280;68630;42.748;23.278;2023-09-19T13:51:08;95490.97;;;25.58;41.36
79203;BME280;68630;42.748;23.278;2023-09-19T13:53:37;95491.72;;;25.75;41.12
79203;BME280;68630;42.748;23.278;2023-09-19T13:56:30;95493.70;;;25.86;40.84
79203;BME280;68630;42.748;23.278;2023-09-19T13:58:56;95496.20;;;26.06;40.62
79203;BME280;68630;42.748;23.278;2023-09-19T14:06:37;95491.42;;;26.29;39.82
79203;BME280;68630;42.748;23.278;2023-09-19T14:09:06;95486.14;;;26.25;39.83
79203;BME280;68630;42.748;23.278;2023-09-19T14:25:22;95445.18;;;25.95;40.11
79203;BME280;68630;42.748;23.278;2023-09-19T14:35:44;95470.30;;;26.46;39.72
79203;BME280;68630;42.748;23.278;2023-09-19T14:43:27;95466.55;;;26.28;40.12
79203;BME280;68630;42.748;23.278;2023-09-19T14:51:11;95467.91;;;25.98;40.61
79203;BME280;68630;42.748;23.278;2023-09-19T14:56:14;95460.84;;;25.81;41.01
79203;BME280;68630;42.748;23.278;2023-09-19T15:01:19;95461.27;;;25.59;41.67
79203;BME280;68630;42.748;23.278;2023-09-19T15:08:57;95461.66;;;25.63;42.19
79203;BME280;68630;42.748;23.278;2023-09-19T15:11:27;95451.73;;;25.59;42.12
79203;BME280;68630;42.748;23.278;2023-09-19T15:13:55;95457.19;;;25.50;42.18
79203;BME280;68630;42.748;23.278;2023-09-19T15:16:27;95461.63;;;25.45;42.64
79203;BME280;68630;42.748;23.278;2023-09-19T15:19:14;95452.34;;;25.43;42.80
79203;BME280;68630;42.748;23.278;2023-09-19T15:21:51;95452.86;;;25.33;42.81
79203;BME280;68630;42.748;23.278;2023-09-19T15:24:20;95441.45;;;25.18;43.41
79203;BME280;68630;42.748;23.278;2023-09-19T15:26:48;95439.11;;;25.21;42.83
79203;BME280;68630;42.748;23.278;2023-09-19T15:34:51;95448.54;;;25.10;43.80
79203;BME280;68630;42.748;23.278;2023-09-19T15:45:33;95451.70;;;25.07;44.09
79203;BME280;68630;42.748;23.278;2023-09-19T15:50:44;95457.68;;;25.06;44.10
79203;BME280;68630;42.748;23.278;2023-09-19T15:53:18;95463.89;;;25.04;43.73
79203;BME280;68630;42.748;23.278;2023-09-19T15:58:20;95473.73;;;24.89;44.25
79203;BME280;68630;42.748;23.278;2023-09-19T16:06:02;95472.57;;;24.78;43.99
79203;BME280;68630;42.748;23.278;2023-09-19T16:08:32;95474.52;;;24.71;44.06
79203;BME280;68630;42.748;23.278;2023-09-19T16:16:13;95473.92;;;24.62;44.74
79203;BME280;68630;42.748;23.278;2023-09-19T16:18:52;95477.14;;;24.46;44.93
79203;BME280;68630;42.748;23.278;2023-09-19T16:21:27;95485.34;;;24.39;44.70
79203;BME280;68630;42.748;23.278;2023-09-19T16:23:56;95481.22;;;24.30;44.98
79203;BME280;68630;42.748;23.278;2023-09-19T16:37:34;95495.34;;;23.64;48.21
79203;BME280;68630;42.748;23.278;2023-09-19T16:40:21;95490.38;;;23.48;48.58
79203;BME280;68630;42.748;23.278;2023-09-19T16:45:29;95504.51;;;23.07;50.36
79203;BME280;68630;42.748;23.278;2023-09-19T16:47:58;95504.51;;;23.07;50.36
79203;BME280;68630;42.748;23.278;2023-09-19T16:50:38;95502.28;;;22.93;51.14
79203;BME280;68630;42.748;23.278;2023-09-19T16:58:38;95511.95;;;22.65;52.70
79203;BME280;68630;42.748;23.278;2023-09-19T17:01:11;95505.15;;;22.45;53.17
79203;BME280;68630;42.748;23.278;2023-09-19T17:28:52;95502.00;;;21.93;54.28
79203;BME280;68630;42.748;23.278;2023-09-19T17:36:41;95513.93;;;21.81;54.48
79203;BME280;68630;42.748;23.278;2023-09-19T17:57:39;95541.60;;;21.70;54.13
79203;BME280;68630;42.748;23.278;2023-09-19T18:14:33;95547.94;;;21.49;55.00
79203;BME280;68630;42.748;23.278;2023-09-19T18:22:12;95549.33;;;21.17;55.94
79203;BME280;68630;42.748;23.278;2023-09-19T18:30:50;95555.33;;;20.90;56.67
79203;BME280;68630;42.748;23.278;2023-09-19T18:33:19;95568.74;;;20.88;56.78
79203;BME280;68630;42.748;23.278;2023-09-19T18:35:49;95577.05;;;20.86;57.07
79203;BME280;68630;42.748;23.278;2023-09-19T18:53:34;95595.99;;;20.75;58.19
79203;BME280;68630;42.748;23.278;2023-09-19T18:56:09;95593.85;;;20.82;57.96
79203;BME280;68630;42.748;23.278;2023-09-19T18:58:42;95598.88;;;20.85;58.00
79203;BME280;68630;42.748;23.278;2023-09-19T19:14:02;95583.60;;;20.66;59.09
79203;BME280;68630;42.748;23.278;2023-09-19T19:16:37;95584.09;;;20.55;59.42
79203;BME280;68630;42.748;23.278;2023-09-19T19:19:09;95588.19;;;20.51;59.39
79203;BME280;68630;42.748;23.278;2023-09-19T19:24:08;95595.28;;;20.52;59.29
79203;BME280;68630;42.748;23.278;2023-09-19T19:37:47;95621.34;;;20.49;59.02
79203;BME280;68630;42.748;23.278;2023-09-19T19:40:15;95618.91;;;20.54;58.93
79203;BME280;68630;42.748;23.278;2023-09-19T19:42:45;95624.31;;;20.54;59.01
79203;BME280;68630;42.748;23.278;2023-09-19T19:47:54;95642.59;;;20.26;60.05
79203;BME280;68630;42.748;23.278;2023-09-19T19:58:20;95688.20;;;20.40;59.92
79203;BME280;68630;42.748;23.278;2023-09-19T20:10:11;95728.86;;;20.17;60.45
79203;BME280;68630;42.748;23.278;2023-09-19T23:07:46;95743.45;;;17.76;81.09
